Shotley, Minnesota
Current Conditions -  °F | °C
As of 12:33 PM on Thursday 29 Jan 2015 (Local Time) from KVWU Reporting Station
Overcast Overcast  
Wind Chill: -6°   Ceiling: 1700
Heat Index:   Visibility: 10mi
Dew Point:   Wind: 12mph
Humidity: 79%   Direction: 300°WNW
Pressure: 30.37"   Gusts: NA
Location:  47.9599°N, 94.5642°W
Report Text: KVWU 291833Z AUTO 30010KT 10SM BKN017 OVC026 M13/M16 A3037 RMK AO2
Loading
Personal Weather Stations






























Interactive Weather Map New forecast layout! Learn more

10-Day Weather Forecast

Advertisements
Track Severe Weather on mobile